Time;durP1;ratioP1;P1;durP2;ratioP2;P2;SDS_P1;SDS_P2;PMS_P1;PMS_P2;Temp;Humidity;BMP_temperature;BMP_pressure;BME280_temperature;BME280_humidity;BME280_pressure;Samples;Min_cycle;Max_cycle;Signal;HPM_P1;HPM_P2
2024/01/27 00:00:55;;;;;;;15.68;2.10;;;4.50;99.90;;;;;;5051348;28;20114;-78
2024/01/27 00:03:21;;;;;;;13.23;1.93;;;4.40;99.90;;;;;;5046275;28;20053;-72
2024/01/27 00:05:49;;;;;;;13.45;2.15;;;4.40;99.90;;;;;;5040852;28;20520;-72
2024/01/27 00:08:15;;;;;;;19.33;2.10;;;4.40;99.90;;;;;;5034952;28;20036;-72
2024/01/27 00:10:45;;;;;;;12.37;2.03;;;4.40;99.90;;;;;;5036024;28;20041;-71
2024/01/27 00:13:11;;;;;;;19.23;2.80;;;4.30;99.90;;;;;;5054595;28;20083;-71
2024/01/27 00:15:37;;;;;;;14.03;2.07;;;4.30;99.90;;;;;;5056323;28;20075;-71
2024/01/27 00:18:02;;;;;;;8.77;2.30;;;4.30;99.90;;;;;;5056419;28;20365;-71
2024/01/27 00:20:28;;;;;;;18.97;2.97;;;4.30;99.90;;;;;;5050134;28;20040;-71
2024/01/27 00:22:54;;;;;;;11.30;1.87;;;4.30;99.90;;;;;;5057787;28;20036;-71
2024/01/27 00:25:19;;;;;;;8.90;1.63;;;4.30;99.90;;;;;;5048139;28;20621;-71
2024/01/27 00:27:47;;;;;;;16.00;2.03;;;4.30;99.90;;;;;;5056100;28;20040;-71
2024/01/27 00:30:13;;;;;;;19.33;3.05;;;4.40;99.90;;;;;;5039286;28;20130;-71
2024/01/27 00:32:39;;;;;;;9.45;1.48;;;4.40;99.90;;;;;;5049741;28;20128;-71
2024/01/27 00:35:05;;;;;;;10.77;1.63;;;4.40;99.90;;;;;;5050219;28;20054;-71
2024/01/27 00:37:37;;;;;;;13.63;2.13;;;4.40;99.90;;;;;;5064078;28;20039;-73
2024/01/27 00:40:05;;;;;;;10.55;1.95;;;4.30;99.90;;;;;;5047044;28;20048;-74
2024/01/27 00:42:33;;;;;;;7.97;2.03;;;4.30;99.90;;;;;;5063776;28;20500;-73
2024/01/27 00:45:09;;;;;;;8.10;1.67;;;4.30;99.90;;;;;;5060937;28;20559;-73
2024/01/27 00:47:35;;;;;;;10.18;2.22;;;4.30;99.90;;;;;;5058757;28;20655;-74
2024/01/27 00:50:01;;;;;;;7.65;1.35;;;4.30;99.90;;;;;;5062721;28;20052;-73
2024/01/27 00:52:30;;;;;;;10.75;1.83;;;4.20;99.90;;;;;;5061768;28;20044;-72
2024/01/27 00:54:56;;;;;;;9.90;2.25;;;4.20;99.90;;;;;;5060802;28;20041;-73
2024/01/27 00:57:23;;;;;;;13.27;2.03;;;4.20;99.90;;;;;;5061772;28;20055;-73
2024/01/27 00:59:49;;;;;;;12.55;2.00;;;4.20;99.90;;;;;;5065339;28;20048;-72
2024/01/27 01:02:15;;;;;;;;;;;4.20;99.90;;;;;;5065589;28;20052;-72
2024/01/27 01:04:46;;;;;;;12.50;1.70;;;4.20;99.90;;;;;;5062057;28;20019;-73
2024/01/27 01:07:12;;;;;;;10.25;1.75;;;4.10;99.90;;;;;;5059231;28;20060;-72
2024/01/27 01:09:39;;;;;;;7.88;1.70;;;4.10;99.90;;;;;;5067991;28;20036;-72
2024/01/27 01:12:06;;;;;;;16.13;2.63;;;4.10;99.90;;;;;;5057537;28;20052;-71
2024/01/27 01:14:33;;;;;;;11.57;1.50;;;4.10;99.90;;;;;;5060044;28;20056;-72
2024/01/27 01:17:04;;;;;;;14.65;2.50;;;4.10;99.90;;;;;;5066134;28;20041;-73
2024/01/27 01:19:31;;;;;;;16.02;2.83;;;4.00;99.90;;;;;;5043650;28;20092;-73
2024/01/27 01:21:58;;;;;;;12.43;1.88;;;4.00;99.90;;;;;;5067333;28;20211;-73
2024/01/27 01:24:25;;;;;;;17.88;2.13;;;4.00;99.90;;;;;;4961373;28;20041;-71
2024/01/27 01:26:51;;;;;;;;;;;4.10;99.90;;;;;;5066947;28;20518;-71
2024/01/27 01:29:17;;;;;;;12.98;1.80;;;4.10;99.90;;;;;;5064645;28;19916;-73
2024/01/27 01:31:44;;;;;;;14.18;2.45;;;4.10;99.90;;;;;;5061011;28;20044;-71
2024/01/27 01:34:10;;;;;;;;;;;4.10;99.90;;;;;;5069564;28;20448;-72
2024/01/27 01:36:42;;;;;;;15.52;2.30;;;4.10;99.90;;;;;;5066040;28;20057;-75
2024/01/27 01:39:13;;;;;;;13.82;2.08;;;4.10;99.90;;;;;;5070880;28;20044;-73
2024/01/27 01:41:42;;;;;;;14.48;2.22;;;4.10;99.90;;;;;;5063549;28;20060;-73
2024/01/27 01:44:21;;;;;;;15.25;2.05;;;4.10;99.90;;;;;;5048859;28;20045;-72
2024/01/27 01:46:57;;;;;;;13.60;1.60;;;4.10;99.90;;;;;;5071974;28;20516;-74
2024/01/27 01:49:31;;;;;;;12.63;1.60;;;4.10;99.90;;;;;;5053588;28;20068;-71
2024/01/27 01:51:57;;;;;;;10.55;1.75;;;4.10;99.90;;;;;;5067075;28;20029;-71
2024/01/27 01:54:27;;;;;;;10.20;2.00;;;4.10;99.90;;;;;;5066060;28;20043;-73
2024/01/27 01:56:55;;;;;;;14.35;1.70;;;4.10;99.90;;;;;;5054919;28;20083;-71
2024/01/27 01:59:23;;;;;;;12.25;2.05;;;4.10;99.90;;;;;;5046203;28;20048;-66
2024/01/27 02:01:49;;;;;;;5.20;1.23;;;4.00;99.90;;;;;;5068658;28;20056;-75
2024/01/27 02:04:15;;;;;;;15.40;2.13;;;4.00;99.90;;;;;;5063395;28;20071;-69
2024/01/27 02:06:40;;;;;;;12.23;2.43;;;4.00;99.90;;;;;;5065413;28;20048;-69
2024/01/27 02:09:06;;;;;;;14.63;2.20;;;4.00;99.90;;;;;;5060563;28;20036;-69
2024/01/27 02:11:32;;;;;;;12.53;2.30;;;4.00;99.90;;;;;;5065374;28;20562;-69
2024/01/27 02:13:57;;;;;;;8.77;1.87;;;4.00;99.90;;;;;;5048795;28;20062;-69
2024/01/27 02:16:23;;;;;;;19.37;2.67;;;4.00;99.90;;;;;;5045736;28;20124;-69
2024/01/27 02:18:49;;;;;;;15.73;1.87;;;4.00;99.90;;;;;;5047238;28;20124;-69
2024/01/27 02:21:14;;;;;;;7.77;1.57;;;3.90;99.90;;;;;;5065080;28;20086;-70
2024/01/27 02:23:42;;;;;;;17.37;1.90;;;3.90;99.90;;;;;;5067313;28;20040;-69
2024/01/27 02:26:08;;;;;;;17.73;2.05;;;3.90;99.90;;;;;;5038242;28;20047;-69
2024/01/27 02:28:35;;;;;;;14.43;2.77;;;3.90;99.90;;;;;;5059522;28;20040;-67
2024/01/27 02:31:01;;;;;;;5.55;1.45;;;3.90;99.90;;;;;;5063796;28;20097;-68
2024/01/27 02:33:26;;;;;;;9.30;2.45;;;3.90;99.90;;;;;;5064832;28;20056;-68
2024/01/27 02:35:52;;;;;;;10.70;1.80;;;3.90;99.90;;;;;;5062749;28;20056;-67
2024/01/27 02:38:18;;;;;;;10.63;1.83;;;3.80;99.90;;;;;;5066282;28;20097;-68
2024/01/27 02:40:43;;;;;;;11.13;1.83;;;3.80;99.90;;;;;;5062337;28;20047;-67
2024/01/27 02:43:09;;;;;;;7.90;2.17;;;3.90;99.90;;;;;;5059645;28;20397;-67
2024/01/27 02:45:35;;;;;;;9.97;2.30;;;3.90;99.90;;;;;;5061199;28;20032;-70
2024/01/27 02:48:00;;;;;;;10.43;1.37;;;3.90;99.90;;;;;;5058196;28;20052;-69
2024/01/27 02:50:28;;;;;;;12.67;2.10;;;3.90;99.90;;;;;;5060349;28;20044;-70
2024/01/27 02:52:54;;;;;;;12.90;2.25;;;3.90;99.90;;;;;;5060606;28;20048;-70
2024/01/27 02:55:20;;;;;;;11.33;1.90;;;3.90;99.90;;;;;;5040885;28;20037;-70
2024/01/27 02:57:51;;;;;;;9.38;2.35;;;3.90;99.90;;;;;;5058316;28;20482;-70
2024/01/27 03:00:17;;;;;;;10.02;1.45;;;3.90;99.90;;;;;;5054743;28;20033;-70
2024/01/27 03:02:43;;;;;;;13.47;1.67;;;3.90;99.90;;;;;;5056139;28;20123;-70
2024/01/27 03:05:08;;;;;;;8.20;1.90;;;3.90;99.90;;;;;;5054949;28;20108;-69
2024/01/27 03:07:36;;;;;;;14.93;2.90;;;3.80;99.90;;;;;;5056189;28;20058;-69
2024/01/27 03:10:02;;;;;;;10.95;1.85;;;3.90;99.90;;;;;;5058731;28;20048;-69
2024/01/27 03:12:28;;;;;;;15.57;2.17;;;3.80;99.90;;;;;;5057283;28;20055;-70
2024/01/27 03:14:57;;;;;;;13.33;1.53;;;3.80;99.90;;;;;;5059593;28;20036;-70
2024/01/27 03:17:22;;;;;;;10.70;1.75;;;3.80;99.90;;;;;;5040056;28;20198;-71
2024/01/27 03:19:48;;;;;;;7.23;2.07;;;3.90;99.90;;;;;;5059139;28;20571;-70
2024/01/27 03:22:13;;;;;;;13.03;2.63;;;3.80;99.90;;;;;;5044852;28;20041;-70
2024/01/27 03:24:39;;;;;;;9.90;1.93;;;3.80;99.90;;;;;;5058783;28;20040;-69
2024/01/27 03:27:05;;;;;;;12.87;2.47;;;3.80;99.90;;;;;;5058510;28;20133;-70
2024/01/27 03:29:30;;;;;;;14.17;2.80;;;3.80;99.90;;;;;;5055688;28;20045;-70
2024/01/27 03:31:56;;;;;;;8.70;1.87;;;3.80;99.90;;;;;;5057575;28;20143;-70
2024/01/27 03:34:24;;;;;;;15.17;1.97;;;3.80;99.90;;;;;;5055010;28;20420;-70
2024/01/27 03:36:50;;;;;;;12.82;1.73;;;3.80;99.90;;;;;;5054416;28;20379;-69
2024/01/27 03:39:16;;;;;;;13.10;2.40;;;3.80;99.90;;;;;;5053379;28;20110;-70
2024/01/27 03:41:41;;;;;;;10.23;1.93;;;3.90;99.90;;;;;;5059641;28;20127;-70
2024/01/27 03:44:07;;;;;;;9.20;2.07;;;3.80;99.90;;;;;;5054731;28;20044;-70
2024/01/27 03:46:33;;;;;;;7.53;2.03;;;3.80;99.90;;;;;;5038484;28;20455;-70
2024/01/27 03:49:01;;;;;;;9.63;2.23;;;3.80;99.90;;;;;;5052356;28;20132;-70
2024/01/27 03:51:26;;;;;;;13.30;2.47;;;3.80;99.90;;;;;;5056490;28;20509;-70
2024/01/27 03:53:52;;;;;;;7.53;1.67;;;3.80;99.90;;;;;;5057556;28;20076;-70
2024/01/27 03:56:18;;;;;;;17.07;1.93;;;3.70;99.90;;;;;;5043557;28;20094;-71
2024/01/27 03:58:43;;;;;;;11.27;1.80;;;3.70;99.90;;;;;;5057784;28;20253;-69
2024/01/27 04:01:09;;;;;;;6.90;1.20;;;3.70;99.90;;;;;;5059582;28;20032;-70
2024/01/27 04:03:34;;;;;;;9.03;1.67;;;3.80;99.90;;;;;;5059578;28;20083;-69
2024/01/27 04:06:03;;;;;;;12.75;1.65;;;3.70;99.90;;;;;;5053473;28;20074;-70
2024/01/27 04:08:31;;;;;;;16.03;1.97;;;3.80;99.90;;;;;;5057708;28;20070;-70
2024/01/27 04:10:57;;;;;;;16.08;2.20;;;3.80;99.90;;;;;;5052224;28;20494;-70
2024/01/27 04:13:23;;;;;;;15.80;1.73;;;3.80;99.90;;;;;;5039475;28;20055;-69
2024/01/27 04:15:51;;;;;;;10.50;1.67;;;3.80;99.90;;;;;;5072245;28;20313;-70
2024/01/27 04:18:17;;;;;;;12.30;1.70;;;3.80;99.90;;;;;;5059297;28;20087;-70
2024/01/27 04:20:43;;;;;;;10.27;1.65;;;3.80;99.90;;;;;;5046561;28;20119;-70
2024/01/27 04:23:09;;;;;;;15.40;3.03;;;3.80;99.90;;;;;;5058760;28;20567;-70
2024/01/27 04:25:34;;;;;;;19.77;2.10;;;3.80;99.90;;;;;;5058613;28;20124;-70
2024/01/27 04:28:00;;;;;;;8.93;1.53;;;3.80;99.90;;;;;;5055885;28;20043;-70
2024/01/27 04:30:25;;;;;;;12.77;1.37;;;3.80;99.90;;;;;;5050146;28;20036;-68
2024/01/27 04:32:51;;;;;;;17.67;2.87;;;3.80;99.90;;;;;;5052090;28;20039;-69
2024/01/27 04:35:17;;;;;;;11.32;1.83;;;3.80;99.90;;;;;;5055856;28;20052;-69
2024/01/27 04:37:46;;;;;;;15.40;2.17;;;3.80;99.90;;;;;;5054485;28;20036;-69
2024/01/27 04:40:12;;;;;;;10.63;1.90;;;3.70;99.90;;;;;;5056726;28;20042;-68
2024/01/27 04:42:38;;;;;;;8.40;1.67;;;3.70;99.90;;;;;;5060243;28;20036;-68
2024/01/27 04:45:05;;;;;;;6.00;1.63;;;3.70;99.90;;;;;;5045976;28;20520;-69
2024/01/27 04:47:30;;;;;;;;;;;3.70;99.90;;;;;;5058398;28;20036;-68
2024/01/27 04:49:57;;;;;;;9.45;1.48;;;3.70;99.90;;;;;;5059839;28;19924;-68
2024/01/27 04:52:25;;;;;;;11.70;1.60;;;3.70;99.90;;;;;;5051557;28;20049;-68
2024/01/27 04:54:53;;;;;;;13.13;2.90;;;3.70;99.90;;;;;;5047710;28;20048;-68
2024/01/27 04:57:19;;;;;;;15.57;1.80;;;3.70;99.90;;;;;;5066624;28;20307;-68
2024/01/27 04:59:45;;;;;;;17.30;2.20;;;3.70;99.90;;;;;;5057089;28;20489;-68
2024/01/27 05:02:11;;;;;;;5.73;1.50;;;3.70;99.90;;;;;;5053145;28;20037;-69
2024/01/27 05:04:40;;;;;;;10.25;1.75;;;3.70;99.90;;;;;;5058189;28;20067;-68
2024/01/27 05:07:09;;;;;;;12.82;2.45;;;3.70;99.90;;;;;;5059185;28;20079;-67
2024/01/27 05:09:35;;;;;;;15.57;2.70;;;3.70;99.90;;;;;;5039554;28;20052;-70
2024/01/27 05:12:01;;;;;;;10.70;2.05;;;3.80;99.90;;;;;;5050401;28;20048;-70
2024/01/27 05:14:27;;;;;;;9.23;1.57;;;3.80;99.90;;;;;;5052507;28;20040;-69
2024/01/27 05:16:52;;;;;;;13.80;1.97;;;3.80;99.90;;;;;;5036025;28;20390;-70
2024/01/27 05:19:18;;;;;;;8.97;2.00;;;3.80;99.90;;;;;;5059675;28;20036;-70
2024/01/27 05:21:44;;;;;;;8.80;1.57;;;3.80;99.90;;;;;;5053338;28;20035;-68
2024/01/27 05:24:10;;;;;;;10.32;2.05;;;3.90;99.90;;;;;;5052827;28;20048;-68
2024/01/27 05:26:35;;;;;;;9.20;2.37;;;3.90;99.90;;;;;;5051188;28;20036;-68
2024/01/27 05:29:01;;;;;;;17.20;2.27;;;3.90;99.90;;;;;;5034592;28;20044;-68
2024/01/27 05:31:26;;;;;;;13.13;2.50;;;3.90;99.90;;;;;;5056187;28;20059;-68
2024/01/27 05:33:55;;;;;;;10.73;1.47;;;3.90;99.90;;;;;;5050007;28;20048;-67
2024/01/27 05:36:20;;;;;;;13.60;1.42;;;3.80;99.90;;;;;;5059092;28;20362;-68
2024/01/27 05:38:46;;;;;;;7.70;1.87;;;3.80;99.90;;;;;;5056895;28;20089;-68
2024/01/27 05:41:11;;;;;;;11.90;1.60;;;3.80;99.90;;;;;;5057033;28;20041;-68
2024/01/27 05:43:37;;;;;;;12.20;2.17;;;3.80;99.90;;;;;;5054627;28;20037;-68
2024/01/27 05:46:03;;;;;;;7.63;1.43;;;3.70;99.90;;;;;;5056503;28;20041;-68
2024/01/27 05:48:29;;;;;;;10.93;2.00;;;3.70;99.90;;;;;;5056454;28;20097;-68
2024/01/27 05:50:59;;;;;;;10.40;1.38;;;3.70;99.90;;;;;;5035316;28;20505;-68
2024/01/27 05:53:25;;;;;;;17.27;1.92;;;3.70;99.90;;;;;;5055684;28;20151;-68
2024/01/27 05:55:52;;;;;;;12.93;2.03;;;3.60;99.90;;;;;;5054988;28;20036;-68
2024/01/27 05:58:21;;;;;;;12.18;2.03;;;3.70;99.90;;;;;;5051830;28;20122;-68
2024/01/27 06:00:47;;;;;;;10.85;2.38;;;3.70;99.90;;;;;;5058162;28;20119;-68
2024/01/27 06:03:13;;;;;;;;;;;3.70;99.90;;;;;;5042266;28;20073;-68
2024/01/27 06:05:42;;;;;;;7.75;1.85;;;3.70;99.90;;;;;;5056466;28;20413;-67
2024/01/27 06:08:08;;;;;;;13.50;2.97;;;3.70;99.90;;;;;;5053609;28;20046;-70
2024/01/27 06:10:36;;;;;;;7.70;2.10;;;3.60;99.90;;;;;;5052988;28;20048;-70
2024/01/27 06:13:04;;;;;;;14.27;2.72;;;3.70;99.90;;;;;;5054945;28;20301;-70
2024/01/27 06:15:30;;;;;;;13.38;2.10;;;3.70;99.90;;;;;;5056054;28;20076;-68
2024/01/27 06:17:57;;;;;;;10.30;2.27;;;3.60;99.90;;;;;;5061920;28;20127;-68
2024/01/27 06:20:24;;;;;;;15.45;1.33;;;3.70;99.90;;;;;;5053717;28;20077;-68
2024/01/27 06:22:49;;;;;;;19.77;2.90;;;3.60;99.90;;;;;;5053082;28;20051;-68
2024/01/27 06:25:16;;;;;;;8.53;1.50;;;3.60;99.90;;;;;;5057366;28;20041;-68
2024/01/27 06:27:42;;;;;;;13.05;2.10;;;3.60;99.90;;;;;;5050535;28;20048;-68
2024/01/27 06:30:09;;;;;;;15.87;2.10;;;3.60;99.90;;;;;;5056726;28;20575;-68
2024/01/27 06:32:35;;;;;;;10.95;2.28;;;3.50;99.90;;;;;;5058857;28;20492;-68
2024/01/27 06:35:04;;;;;;;14.63;1.73;;;3.50;99.90;;;;;;5040017;28;20036;-68
2024/01/27 06:37:32;;;;;;;16.80;3.08;;;3.60;99.90;;;;;;5060696;28;20036;-68
2024/01/27 06:40:00;;;;;;;16.07;1.47;;;3.50;99.90;;;;;;5057482;28;20039;-69
2024/01/27 06:42:26;;;;;;;10.95;2.03;;;3.50;99.90;;;;;;5059678;28;20055;-69
2024/01/27 06:44:54;;;;;;;10.17;1.67;;;3.50;99.90;;;;;;5060536;28;20048;-68
2024/01/27 06:47:19;;;;;;;10.75;2.05;;;3.50;99.90;;;;;;5058593;28;20037;-68
2024/01/27 06:49:45;;;;;;;8.23;1.40;;;3.50;99.90;;;;;;5051304;28;20036;-68
2024/01/27 06:52:13;;;;;;;15.67;2.47;;;3.50;99.90;;;;;;5058353;28;20074;-68
2024/01/27 06:54:43;;;;;;;11.95;2.53;;;3.50;99.90;;;;;;5060088;28;20124;-68
2024/01/27 06:57:18;;;;;;;11.57;2.33;;;3.50;99.90;;;;;;5061875;28;20047;-68
2024/01/27 06:59:44;;;;;;;10.27;2.00;;;3.50;99.90;;;;;;5054512;28;20036;-68
2024/01/27 07:02:13;;;;;;;12.93;2.37;;;3.60;99.90;;;;;;5040606;28;20455;-68
2024/01/27 07:04:42;;;;;;;15.90;1.75;;;3.50;99.90;;;;;;5064180;28;20587;-68
2024/01/27 07:07:07;;;;;;;11.20;2.10;;;3.50;99.90;;;;;;5056223;28;20129;-68
2024/01/27 07:09:34;;;;;;;;;;;3.50;99.90;;;;;;5054227;28;20049;-68
2024/01/27 07:11:59;;;;;;;13.05;2.45;;;3.50;99.90;;;;;;5057067;28;19970;-68
2024/01/27 07:14:34;;;;;;;13.93;2.25;;;3.50;99.90;;;;;;5054868;28;20115;-68
2024/01/27 07:17:00;;;;;;;15.43;2.47;;;3.50;99.90;;;;;;5056047;28;20163;-68
2024/01/27 07:19:28;;;;;;;18.27;2.30;;;3.40;99.90;;;;;;5058191;28;20124;-68
2024/01/27 07:21:53;;;;;;;14.70;2.83;;;3.50;99.90;;;;;;5053459;28;20072;-68
2024/01/27 07:24:19;;;;;;;13.27;2.10;;;3.50;99.90;;;;;;5054853;28;20048;-70
2024/01/27 07:26:45;;;;;;;10.82;1.58;;;3.50;99.90;;;;;;5059714;28;20037;-68
2024/01/27 07:29:11;;;;;;;16.33;3.80;;;3.50;99.90;;;;;;5049145;28;20559;-68
2024/01/27 07:31:40;;;;;;;8.30;2.20;;;3.50;99.90;;;;;;5062623;28;20170;-68
2024/01/27 07:34:06;;;;;;;18.88;2.90;;;3.40;99.90;;;;;;5027385;28;20346;-68
2024/01/27 07:36:32;;;;;;;9.60;2.55;;;3.40;99.90;;;;;;5056143;28;20036;-68
2024/01/27 07:38:59;;;;;;;10.95;2.85;;;3.40;99.90;;;;;;5039866;28;20057;-69
2024/01/27 07:41:24;;;;;;;14.38;2.88;;;3.40;99.90;;;;;;5040535;28;20071;-69
2024/01/27 07:43:51;;;;;;;8.77;3.00;;;3.40;99.90;;;;;;5044077;28;20041;-68
2024/01/27 07:46:19;;;;;;;11.45;2.40;;;3.40;99.90;;;;;;5061992;28;20575;-68
2024/01/27 07:48:45;;;;;;;9.13;2.58;;;3.40;99.90;;;;;;5059432;28;20040;-68
2024/01/27 07:51:11;;;;;;;12.35;3.10;;;3.40;99.90;;;;;;5056964;28;20041;-68
2024/01/27 07:53:37;;;;;;;11.80;1.97;;;3.40;99.90;;;;;;5060322;28;20040;-69
2024/01/27 07:56:02;;;;;;;15.10;2.57;;;3.40;99.90;;;;;;5060121;28;20139;-69
2024/01/27 07:58:28;;;;;;;15.37;2.27;;;3.50;99.90;;;;;;5058639;28;20038;-69
2024/01/27 08:00:54;;;;;;;17.50;2.80;;;3.40;99.90;;;;;;5054642;28;20313;-68
2024/01/27 08:03:19;;;;;;;9.77;2.00;;;3.50;99.90;;;;;;5053719;28;20157;-69
2024/01/27 08:05:45;;;;;;;10.87;2.33;;;3.40;99.90;;;;;;5054343;28;20157;-68
2024/01/27 08:08:11;;;;;;;12.27;2.33;;;3.50;99.90;;;;;;5058772;28;20091;-79
2024/01/27 08:10:37;;;;;;;9.45;2.47;;;3.40;99.90;;;;;;5055608;28;20068;-79
2024/01/27 08:13:02;;;;;;;15.03;3.20;;;3.40;99.90;;;;;;5056787;28;20048;-79
2024/01/27 08:15:28;;;;;;;11.90;2.27;;;3.40;99.90;;;;;;5054899;28;20047;-83
2024/01/27 08:17:54;;;;;;;12.47;2.40;;;3.40;99.90;;;;;;5038203;28;20037;-78
2024/01/27 08:20:20;;;;;;;9.17;2.00;;;3.40;99.90;;;;;;5044573;28;20033;-73
2024/01/27 08:22:50;;;;;;;11.60;2.60;;;3.40;99.90;;;;;;5059101;28;20072;-72
2024/01/27 08:25:18;;;;;;;7.63;2.17;;;3.40;99.90;;;;;;5062801;28;20079;-72
2024/01/27 08:27:44;;;;;;;9.48;2.53;;;3.40;99.90;;;;;;5047014;28;20064;-72
2024/01/27 08:30:10;;;;;;;15.77;2.87;;;3.40;99.90;;;;;;5051697;28;20513;-74
2024/01/27 08:32:37;;;;;;;22.48;4.15;;;3.50;99.90;;;;;;5055813;28;20104;-73
2024/01/27 08:35:03;;;;;;;17.33;3.78;;;3.50;99.90;;;;;;5054856;28;20056;-73
2024/01/27 08:37:36;;;;;;;20.00;2.90;;;3.50;99.90;;;;;;5052537;28;20047;-71
2024/01/27 08:40:02;;;;;;;15.80;3.20;;;3.60;99.90;;;;;;5051255;28;20076;-69
2024/01/27 08:42:27;;;;;;;11.47;2.63;;;3.60;99.90;;;;;;5062087;28;20078;-69
2024/01/27 08:44:53;;;;;;;9.03;2.03;;;3.60;99.90;;;;;;5048692;28;20105;-71
2024/01/27 08:47:19;;;;;;;12.70;3.00;;;3.70;99.90;;;;;;5063109;28;20102;-70
2024/01/27 08:49:47;;;;;;;15.33;3.00;;;3.70;99.90;;;;;;5057376;28;20048;-79
2024/01/27 08:52:12;;;;;;;11.82;3.13;;;3.70;99.90;;;;;;5042183;28;20048;-71
2024/01/27 08:54:38;;;;;;;11.93;3.07;;;3.80;99.90;;;;;;5035306;28;20136;-76
2024/01/27 08:57:04;;;;;;;12.17;3.70;;;3.80;99.90;;;;;;5033445;28;20572;-76
2024/01/27 08:59:33;;;;;;;20.67;4.13;;;3.90;99.90;;;;;;5055761;28;20044;-78
2024/01/27 09:01:59;;;;;;;11.23;3.05;;;3.90;99.90;;;;;;5055755;28;20113;-70
2024/01/27 09:04:24;;;;;;;12.27;3.17;;;4.00;99.90;;;;;;5060566;28;20320;-73
2024/01/27 09:06:50;;;;;;;8.93;3.30;;;4.00;99.90;;;;;;5057808;28;20040;-72
2024/01/27 09:09:16;;;;;;;17.73;3.50;;;4.20;99.90;;;;;;5055115;28;20048;-72
2024/01/27 09:11:42;;;;;;;14.33;3.93;;;4.20;99.90;;;;;;5056105;28;20355;-71
2024/01/27 09:14:11;;;;;;;19.17;3.35;;;4.30;99.90;;;;;;5041384;28;20041;-69
2024/01/27 09:16:37;;;;;;;16.77;4.20;;;4.50;99.90;;;;;;5059672;28;20042;-75
2024/01/27 09:19:02;;;;;;;14.83;3.77;;;4.60;99.90;;;;;;5045969;28;20044;-68
2024/01/27 09:21:32;;;;;;;11.43;3.67;;;4.60;99.90;;;;;;5049071;28;20419;-69
2024/01/27 09:23:58;;;;;;;20.08;4.60;;;4.70;99.90;;;;;;5056223;28;20051;-68
2024/01/27 09:26:24;;;;;;;14.15;3.13;;;4.80;99.90;;;;;;5057884;28;20036;-68
2024/01/27 09:28:55;;;;;;;17.17;3.73;;;4.90;99.90;;;;;;5059860;28;20044;-68
2024/01/27 09:31:22;;;;;;;18.40;4.10;;;4.90;99.90;;;;;;5051287;28;20053;-68
2024/01/27 09:33:51;;;;;;;14.88;4.32;;;5.00;99.90;;;;;;5064326;28;20047;-68
2024/01/27 09:36:17;;;;;;;17.10;3.70;;;5.10;99.90;;;;;;5060029;28;20045;-68
2024/01/27 09:38:42;;;;;;;16.95;3.53;;;5.20;99.90;;;;;;5043405;28;20047;-69
2024/01/27 09:41:09;;;;;;;10.53;3.50;;;5.20;99.90;;;;;;5056452;28;20041;-70
2024/01/27 09:43:37;;;;;;;10.27;3.20;;;5.30;99.90;;;;;;5059933;28;20182;-70
2024/01/27 09:46:03;;;;;;;19.38;4.13;;;5.40;99.90;;;;;;5040436;28;20694;-69
2024/01/27 09:48:30;;;;;;;17.80;3.37;;;5.50;99.90;;;;;;5058714;28;20285;-70
2024/01/27 09:50:58;;;;;;;23.67;3.60;;;5.60;99.90;;;;;;5055832;28;20525;-69
2024/01/27 09:53:27;;;;;;;11.57;3.35;;;5.70;99.90;;;;;;5056613;28;20584;-69
2024/01/27 09:55:53;;;;;;;12.93;2.67;;;5.80;99.90;;;;;;5055373;28;20223;-69
2024/01/27 09:58:19;;;;;;;14.75;3.10;;;5.90;99.90;;;;;;5066334;28;20504;-70
2024/01/27 10:00:45;;;;;;;17.80;4.30;;;6.00;99.90;;;;;;5063296;28;20041;-69
2024/01/27 10:03:11;;;;;;;7.57;2.73;;;6.10;99.90;;;;;;5051789;28;20390;-69
2024/01/27 10:05:38;;;;;;;18.13;3.83;;;6.10;99.90;;;;;;5058077;28;20044;-69
2024/01/27 10:08:08;;;;;;;13.90;2.53;;;6.20;99.90;;;;;;5042035;28;20672;-69
2024/01/27 10:10:34;;;;;;;12.70;3.13;;;6.30;99.90;;;;;;5056767;28;20076;-69
2024/01/27 10:13:04;;;;;;;22.33;4.10;;;6.40;99.90;;;;;;5059297;28;20150;-69
2024/01/27 10:15:29;;;;;;;16.67;2.63;;;6.50;99.90;;;;;;5042183;28;20041;-69
2024/01/27 10:18:08;;;;;;;15.60;3.07;;;6.50;99.90;;;;;;5063574;28;20036;-70
2024/01/27 10:20:34;;;;;;;15.88;3.28;;;6.70;99.90;;;;;;5038936;28;20142;-70
2024/01/27 10:23:11;;;;;;;14.50;3.90;;;6.70;99.90;;;;;;5071199;28;20508;-70
2024/01/27 10:25:40;;;;;;;19.40;3.58;;;6.70;99.90;;;;;;5065890;28;20084;-69
2024/01/27 10:28:09;;;;;;;15.02;4.35;;;6.90;99.90;;;;;;5066363;28;20113;-69
2024/01/27 10:30:36;;;;;;;11.85;3.15;;;7.00;99.90;;;;;;5060092;28;20033;-70
2024/01/27 10:33:02;;;;;;;14.07;3.35;;;7.00;99.90;;;;;;5060906;28;20048;-70
2024/01/27 10:35:28;;;;;;;13.23;3.20;;;7.10;99.90;;;;;;5040592;28;20151;-69
2024/01/27 10:37:55;;;;;;;14.80;2.67;;;7.20;99.90;;;;;;5065264;28;20037;-69
2024/01/27 10:40:29;;;;;;;10.88;2.70;;;7.20;99.90;;;;;;5062711;28;20497;-69
2024/01/27 10:43:02;;;;;;;16.55;3.05;;;7.20;99.90;;;;;;5066387;28;20128;-70
2024/01/27 10:45:36;;;;;;;18.90;2.85;;;7.30;99.90;;;;;;5059577;28;20040;-70
2024/01/27 10:48:03;;;;;;;15.30;3.65;;;7.40;99.90;;;;;;5064856;28;20052;-69
2024/01/27 10:50:29;;;;;;;10.85;2.90;;;7.40;99.90;;;;;;5059107;28;20457;-69
2024/01/27 10:52:57;;;;;;;18.47;3.33;;;7.50;99.90;;;;;;5057247;28;20051;-70
2024/01/27 10:55:24;;;;;;;20.27;2.55;;;7.60;99.90;;;;;;5061920;28;20032;-69
2024/01/27 10:57:53;;;;;;;16.80;3.20;;;7.60;99.90;;;;;;5058885;28;20433;-69
2024/01/27 11:00:19;;;;;;;9.65;2.10;;;7.70;99.90;;;;;;5057603;28;20100;-69
2024/01/27 11:02:46;;;;;;;19.35;3.63;;;7.70;99.90;;;;;;5058736;28;20116;-69
2024/01/27 11:05:17;;;;;;;16.25;3.92;;;7.80;99.90;;;;;;5055041;28;20045;-69
2024/01/27 11:07:43;;;;;;;13.63;3.33;;;7.90;99.90;;;;;;5056851;28;20082;-70
2024/01/27 11:10:09;;;;;;;21.58;3.05;;;7.90;99.90;;;;;;5063179;28;20076;-70
2024/01/27 11:12:38;;;;;;;11.37;3.00;;;7.90;99.90;;;;;;5061873;28;20045;-70
2024/01/27 11:15:04;;;;;;;19.25;3.25;;;8.00;99.90;;;;;;5062969;28;20171;-70
2024/01/27 11:17:41;;;;;;;8.82;2.15;;;8.00;99.90;;;;;;5059056;28;20040;-70
2024/01/27 11:20:11;;;;;;;13.48;2.85;;;8.00;99.90;;;;;;5060810;28;20094;-69
2024/01/27 11:22:37;;;;;;;13.43;3.55;;;8.00;99.90;;;;;;5036947;28;21018;-70
2024/01/27 11:25:12;;;;;;;11.93;3.13;;;8.00;99.90;;;;;;5054446;28;20071;-69
2024/01/27 11:27:46;;;;;;;15.68;3.30;;;8.10;99.90;;;;;;5062843;28;20454;-69
2024/01/27 11:30:37;;;;;;;19.95;3.22;;;8.20;99.90;;;;;;5041606;28;20505;-69
2024/01/27 11:33:04;;;;;;;13.88;3.03;;;8.20;99.90;;;;;;5059042;28;20806;-69
2024/01/27 11:35:30;;;;;;;18.38;3.22;;;8.30;99.90;;;;;;5055087;28;20093;-69
2024/01/27 11:37:55;;;;;;;11.70;2.70;;;8.30;99.90;;;;;;5057890;28;20044;-70
2024/01/27 11:40:21;;;;;;;9.53;2.80;;;8.30;99.90;;;;;;5071162;28;20448;-69
2024/01/27 11:43:03;;;;;;;18.33;3.47;;;8.40;99.90;;;;;;5064141;28;20071;-70
2024/01/27 11:45:30;;;;;;;14.30;2.83;;;8.40;99.90;;;;;;5059577;28;20040;-69
2024/01/27 11:47:56;;;;;;;15.55;4.07;;;8.50;99.90;;;;;;5056701;28;20088;-69
2024/01/27 11:50:25;;;;;;;17.90;2.85;;;8.50;99.90;;;;;;5060509;28;20113;-74
2024/01/27 11:52:50;;;;;;;13.38;3.45;;;8.50;99.90;;;;;;5039315;28;20102;-74
2024/01/27 11:55:19;;;;;;;19.95;3.92;;;8.60;99.90;;;;;;5041163;28;20091;-72
2024/01/27 11:57:45;;;;;;;19.83;2.83;;;8.50;99.90;;;;;;5046429;28;20032;-73
2024/01/27 12:00:11;;;;;;;14.70;3.17;;;8.60;99.90;;;;;;5040655;28;20068;-73
2024/01/27 12:02:38;;;;;;;17.60;3.60;;;8.60;99.90;;;;;;5050283;28;20053;-73
2024/01/27 12:05:08;;;;;;;9.05;2.40;;;8.70;99.90;;;;;;5069737;28;20045;-70
2024/01/27 12:07:34;;;;;;;18.42;3.42;;;8.70;99.90;;;;;;5060978;28;20048;-74
2024/01/27 12:10:03;;;;;;;16.50;3.53;;;8.70;99.90;;;;;;5053656;28;20041;-74
2024/01/27 12:12:29;;;;;;;20.00;3.25;;;8.80;99.90;;;;;;5048383;28;20052;-73
2024/01/27 12:14:54;;;;;;;20.80;3.20;;;8.80;99.90;;;;;;5055890;28;20148;-74
2024/01/27 12:17:22;;;;;;;12.97;2.60;;;8.90;99.90;;;;;;5052147;28;20052;-71
2024/01/27 12:19:53;;;;;;;14.77;3.60;;;8.90;99.90;;;;;;5070175;28;20067;-70
2024/01/27 12:22:27;;;;;;;16.70;3.45;;;9.00;99.90;;;;;;5060193;28;20044;-70
2024/01/27 12:24:54;;;;;;;10.82;3.97;;;9.10;99.90;;;;;;5053273;28;20040;-70
2024/01/27 12:27:25;;;;;;;18.70;3.40;;;9.10;99.90;;;;;;5049417;28;20120;-70
2024/01/27 12:29:51;;;;;;;12.50;3.92;;;9.10;99.90;;;;;;5033098;28;20079;-70
2024/01/27 12:32:18;;;;;;;11.82;3.50;;;9.00;99.90;;;;;;5050611;28;20040;-70
2024/01/27 12:34:49;;;;;;;14.75;3.92;;;9.00;99.90;;;;;;5064827;28;20378;-70
2024/01/27 12:37:15;;;;;;;12.15;2.67;;;9.00;99.90;;;;;;5069561;28;20043;-70
2024/01/27 12:39:44;;;;;;;14.68;3.22;;;9.10;99.90;;;;;;5069919;28;20489;-70
2024/01/27 12:42:11;;;;;;;9.85;3.10;;;9.10;99.90;;;;;;5069627;28;20413;-70
2024/01/27 12:44:37;;;;;;;10.95;2.60;;;9.20;99.90;;;;;;5052865;28;20046;-71
2024/01/27 12:47:04;;;;;;;9.68;2.42;;;9.30;99.90;;;;;;5071046;28;20516;-70
2024/01/27 12:49:30;;;;;;;14.52;4.05;;;9.30;99.90;;;;;;5069400;28;20040;-70